Time;durP1;ratioP1;P1;durP2;ratioP2;P2;SDS_P1;SDS_P2;PMS_P1;PMS_P2;Temp;Humidity;BMP_temperature;BMP_pressure;BME280_temperature;BME280_humidity;BME280_pressure;Samples;Min_cycle;Max_cycle;Signal;HPM_P1;HPM_P2
2020/12/14 00:00:46;;;;;;;11.50;5.60;;;5.30;99.90;;;;;;5031053;28;20029;-62
2020/12/14 00:03:33;;;;;;;10.57;4.47;;;5.30;99.90;;;;;;5032442;28;20539;-62
2020/12/14 00:06:19;;;;;;;10.98;5.93;;;5.30;99.90;;;;;;5015790;28;20394;-62
2020/12/14 00:09:05;;;;;;;10.43;5.57;;;5.30;99.90;;;;;;5031422;28;20056;-62
2020/12/14 00:11:51;;;;;;;8.88;5.10;;;5.30;99.90;;;;;;5016671;28;20041;-62
2020/12/14 00:14:37;;;;;;;9.30;4.60;;;5.30;99.90;;;;;;5032158;28;20406;-62
2020/12/14 00:17:23;;;;;;;12.60;5.28;;;5.40;99.90;;;;;;5031856;28;20449;-62
2020/12/14 00:20:09;;;;;;;8.40;5.18;;;5.40;99.90;;;;;;5031878;28;20041;-62
2020/12/14 00:22:55;;;;;;;8.02;4.45;;;5.30;99.90;;;;;;5031271;28;20548;-62
2020/12/14 00:25:42;;;;;;;9.80;4.60;;;5.10;99.90;;;;;;5016125;28;20391;-62
2020/12/14 00:28:28;;;;;;;8.90;5.35;;;4.90;99.90;;;;;;5031698;28;20487;-62
2020/12/14 00:31:17;;;;;;;10.48;4.90;;;4.80;99.90;;;;;;5031823;28;20033;-62
2020/12/14 00:34:03;;;;;;;8.90;4.40;;;4.80;99.90;;;;;;5031653;28;20087;-62
2020/12/14 00:36:49;;;;;;;9.77;4.82;;;4.70;99.90;;;;;;5031412;28;20034;-62
2020/12/14 00:39:36;;;;;;;8.77;4.47;;;4.70;99.90;;;;;;5030441;28;20049;-62
2020/12/14 00:42:22;;;;;;;11.35;4.93;;;4.70;99.90;;;;;;5031279;28;20061;-62
2020/12/14 00:45:08;;;;;;;10.90;4.55;;;4.70;99.90;;;;;;5030197;28;20037;-62
2020/12/14 00:47:54;;;;;;;10.00;4.25;;;4.70;99.90;;;;;;5031510;28;20033;-62
2020/12/14 00:50:40;;;;;;;11.30;4.00;;;4.70;99.90;;;;;;5029322;28;20033;-62
2020/12/14 00:53:26;;;;;;;7.20;4.05;;;4.70;99.90;;;;;;5031233;28;20045;-62
2020/12/14 00:56:12;;;;;;;9.05;4.70;;;4.80;99.90;;;;;;5029562;28;20124;-62
2020/12/14 00:58:58;;;;;;;9.25;4.60;;;4.80;99.90;;;;;;5029563;28;20034;-61
2020/12/14 01:01:44;;;;;;;7.50;4.05;;;4.90;99.90;;;;;;5030289;28;20402;-61
2020/12/14 01:04:30;;;;;;;8.00;4.43;;;5.00;99.90;;;;;;5030834;28;20458;-61
2020/12/14 01:07:16;;;;;;;9.25;4.05;;;5.00;99.90;;;;;;5030961;28;20041;-61
2020/12/14 01:10:02;;;;;;;8.30;4.85;;;4.90;99.90;;;;;;5029502;28;20060;-61
2020/12/14 01:12:48;;;;;;;8.20;4.50;;;5.00;99.90;;;;;;5031203;28;20087;-61
2020/12/14 01:15:34;;;;;;;9.55;4.20;;;5.00;99.90;;;;;;5031211;28;20048;-61
2020/12/14 01:18:20;;;;;;;10.00;5.20;;;5.00;99.90;;;;;;5015419;28;20455;-61
2020/12/14 01:21:07;;;;;;;10.98;4.55;;;5.00;99.90;;;;;;5031148;28;20485;-61
2020/12/14 01:23:53;;;;;;;8.23;4.10;;;5.00;99.90;;;;;;5030066;28;20033;-61
2020/12/14 01:26:39;;;;;;;8.95;4.15;;;5.00;99.90;;;;;;5030111;28;20041;-61
2020/12/14 01:29:24;;;;;;;10.95;4.78;;;5.10;99.90;;;;;;5009514;28;20502;-61
2020/12/14 01:32:11;;;;;;;10.00;5.18;;;5.10;99.90;;;;;;5031092;28;20040;-61
2020/12/14 01:34:57;;;;;;;17.30;4.95;;;5.10;99.90;;;;;;5030278;28;20065;-61
2020/12/14 01:37:43;;;;;;;10.40;4.38;;;5.20;99.90;;;;;;5030615;28;20116;-61
2020/12/14 01:40:29;;;;;;;6.85;4.10;;;5.30;99.90;;;;;;5030649;28;20095;-61
2020/12/14 01:43:15;;;;;;;7.85;3.88;;;5.30;99.90;;;;;;5029946;28;20058;-61
2020/12/14 01:46:01;;;;;;;6.78;3.90;;;5.40;99.90;;;;;;5031316;28;20131;-61
2020/12/14 01:48:47;;;;;;;8.57;4.55;;;5.50;99.90;;;;;;5034703;28;20042;-61
2020/12/14 01:51:33;;;;;;;7.80;3.88;;;5.60;99.90;;;;;;5018571;28;20417;-61
2020/12/14 01:54:29;;;;;;;8.70;4.60;;;5.60;99.90;;;;;;5033420;28;20046;-61
2020/12/14 01:57:15;;;;;;;7.82;4.43;;;5.50;99.90;;;;;;5019225;28;20065;-61
2020/12/14 02:00:01;;;;;;;9.63;5.00;;;5.50;99.90;;;;;;5019828;28;20065;-61
2020/12/14 02:02:47;;;;;;;8.07;4.47;;;5.50;99.90;;;;;;5034041;28;20065;-61
2020/12/14 02:05:33;;;;;;;8.98;4.60;;;5.40;99.90;;;;;;5034254;28;20079;-61
2020/12/14 02:08:19;;;;;;;10.82;4.20;;;5.30;99.90;;;;;;5018445;28;20044;-61
2020/12/14 02:11:05;;;;;;;9.00;4.53;;;5.30;99.90;;;;;;5034871;28;20073;-61
2020/12/14 02:13:51;;;;;;;11.32;4.15;;;5.30;99.90;;;;;;5034611;28;20434;-61
2020/12/14 02:16:37;;;;;;;7.38;3.85;;;5.10;99.90;;;;;;5032958;28;20033;-61
2020/12/14 02:19:23;;;;;;;6.05;3.53;;;5.10;99.90;;;;;;5033101;28;20064;-61
2020/12/14 02:22:09;;;;;;;8.32;4.60;;;5.00;99.90;;;;;;5032430;28;20037;-62
2020/12/14 02:24:57;;;;;;;6.40;3.70;;;5.10;99.90;;;;;;5032769;28;20029;-62
2020/12/14 02:27:45;;;;;;;10.55;4.25;;;5.00;99.90;;;;;;5033929;28;20425;-62
2020/12/14 02:30:31;;;;;;;8.02;3.60;;;5.10;99.90;;;;;;5032993;28;20117;-62
2020/12/14 02:33:17;;;;;;;5.95;3.55;;;5.00;99.90;;;;;;5017934;28;20057;-62
2020/12/14 02:36:03;;;;;;;7.82;3.63;;;5.10;99.90;;;;;;5033845;28;20526;-62
2020/12/14 02:38:50;;;;;;;6.72;3.90;;;5.10;99.90;;;;;;5033671;28;20041;-62
2020/12/14 02:41:36;;;;;;;6.15;3.65;;;5.30;99.90;;;;;;5019478;28;20045;-62
2020/12/14 02:44:22;;;;;;;6.60;3.17;;;5.30;99.90;;;;;;5032422;28;20535;-62
2020/12/14 02:47:09;;;;;;;7.85;3.83;;;5.30;99.90;;;;;;5032665;28;20540;-62
2020/12/14 02:49:55;;;;;;;6.97;3.58;;;5.30;99.90;;;;;;5017553;28;20037;-62
2020/12/14 02:52:42;;;;;;;5.97;3.20;;;5.30;99.90;;;;;;5033326;28;20046;-62
2020/12/14 02:55:28;;;;;;;8.35;3.42;;;5.20;99.90;;;;;;5032396;28;20029;-62
2020/12/14 02:58:14;;;;;;;6.18;3.33;;;5.20;99.90;;;;;;5032196;28;20449;-62
2020/12/14 03:01:00;;;;;;;5.45;3.22;;;5.20;99.90;;;;;;5032842;28;20111;-62
2020/12/14 03:03:46;;;;;;;5.35;3.35;;;5.10;99.90;;;;;;5033070;28;20456;-62
2020/12/14 03:06:32;;;;;;;9.50;3.95;;;5.10;99.90;;;;;;5031753;28;20034;-62
2020/12/14 03:09:20;;;;;;;6.95;3.70;;;5.10;99.90;;;;;;5031426;28;20482;-62
2020/12/14 03:12:06;;;;;;;6.75;3.38;;;5.00;99.90;;;;;;5017256;28;20125;-62
2020/12/14 03:14:52;;;;;;;6.72;3.35;;;5.00;99.90;;;;;;5031734;28;20025;-62
2020/12/14 03:17:38;;;;;;;5.40;3.03;;;5.00;99.90;;;;;;5032688;28;20049;-62
2020/12/14 03:20:26;;;;;;;6.90;3.50;;;4.90;99.90;;;;;;5033112;28;20131;-62
2020/12/14 03:23:12;;;;;;;5.65;3.13;;;4.90;99.90;;;;;;5024544;28;20032;-62
2020/12/14 03:25:59;;;;;;;5.03;3.22;;;4.90;99.90;;;;;;5032479;28;20069;-62
2020/12/14 03:28:45;;;;;;;8.23;3.55;;;4.90;99.90;;;;;;5017122;28;20067;-62
2020/12/14 03:31:35;;;;;;;6.18;3.20;;;4.80;99.90;;;;;;5031790;28;20071;-62
2020/12/14 03:34:21;;;;;;;6.30;3.30;;;4.70;99.90;;;;;;5017045;28;20069;-62
2020/12/14 03:37:07;;;;;;;9.27;3.30;;;4.70;99.90;;;;;;5031743;28;20030;-62
2020/12/14 03:39:53;;;;;;;4.93;3.13;;;4.70;99.90;;;;;;5031366;28;20029;-62
2020/12/14 03:42:40;;;;;;;8.73;3.08;;;4.70;99.90;;;;;;5032091;28;20145;-63
2020/12/14 03:45:26;;;;;;;8.48;3.63;;;4.60;99.90;;;;;;5031748;28;20036;-62
2020/12/14 03:48:12;;;;;;;6.00;3.25;;;4.60;99.90;;;;;;5031276;28;20029;-62
2020/12/14 03:50:58;;;;;;;6.85;3.40;;;4.70;99.90;;;;;;5016727;28;20491;-62
2020/12/14 03:53:44;;;;;;;10.48;3.28;;;4.70;99.90;;;;;;5031268;28;20041;-62
2020/12/14 03:56:30;;;;;;;7.40;3.33;;;4.70;99.90;;;;;;5031300;28;20086;-62
2020/12/14 03:59:16;;;;;;;6.15;3.20;;;4.70;99.90;;;;;;5031740;28;20037;-62
2020/12/14 04:02:02;;;;;;;9.60;3.58;;;4.70;99.90;;;;;;5031465;28;20034;-62
2020/12/14 04:04:48;;;;;;;7.35;3.30;;;4.80;99.90;;;;;;5031887;28;20527;-62
2020/12/14 04:07:34;;;;;;;5.80;2.90;;;4.90;99.90;;;;;;5031056;28;20061;-62
2020/12/14 04:10:20;;;;;;;5.78;3.08;;;4.90;99.90;;;;;;5030937;28;20037;-62
2020/12/14 04:13:06;;;;;;;5.38;2.88;;;5.00;99.90;;;;;;5030385;28;20037;-62
2020/12/14 04:15:52;;;;;;;7.40;2.88;;;4.90;99.90;;;;;;5031864;28;20057;-62
2020/12/14 04:18:39;;;;;;;4.22;2.40;;;4.90;99.90;;;;;;5030893;28;20115;-62
2020/12/14 04:21:28;;;;;;;6.07;2.80;;;4.80;99.90;;;;;;5032101;28;20123;-62
2020/12/14 04:24:14;;;;;;;6.70;3.13;;;4.70;99.90;;;;;;5031307;28;20126;-62
2020/12/14 04:27:03;;;;;;;5.55;3.03;;;4.80;99.90;;;;;;5031097;28;20060;-62
2020/12/14 04:29:49;;;;;;;5.05;2.70;;;4.70;99.90;;;;;;5016965;28;20450;-62
2020/12/14 04:32:36;;;;;;;6.43;3.35;;;4.70;99.90;;;;;;5032059;28;20072;-62
2020/12/14 04:35:22;;;;;;;6.72;3.67;;;4.80;99.90;;;;;;5031579;28;20041;-60
2020/12/14 04:38:08;;;;;;;6.82;3.22;;;4.70;99.90;;;;;;5031030;28;20379;-61
2020/12/14 04:40:54;;;;;;;8.38;3.50;;;4.60;99.90;;;;;;5015610;28;20111;-61
2020/12/14 04:43:42;;;;;;;8.82;3.35;;;4.50;99.90;;;;;;5032019;28;20420;-60
2020/12/14 04:46:29;;;;;;;10.23;3.50;;;4.50;99.90;;;;;;5022377;28;20096;-62
2020/12/14 04:49:17;;;;;;;5.53;3.33;;;4.50;99.90;;;;;;5017894;28;20038;-62
2020/12/14 04:52:03;;;;;;;5.25;3.00;;;4.50;99.90;;;;;;5010057;28;20041;-62
2020/12/14 04:54:50;;;;;;;6.30;2.80;;;4.50;99.90;;;;;;4995794;28;20088;-62
2020/12/14 04:57:36;;;;;;;7.78;4.03;;;4.50;99.90;;;;;;5011808;28;20509;-61
2020/12/14 05:00:22;;;;;;;7.55;3.53;;;4.50;99.90;;;;;;4996463;28;20045;-63
2020/12/14 05:03:08;;;;;;;7.18;2.85;;;4.40;99.90;;;;;;5010936;28;20095;-62
2020/12/14 05:05:57;;;;;;;6.88;3.35;;;4.40;99.90;;;;;;4996196;28;20034;-62
2020/12/14 05:08:44;;;;;;;10.15;3.70;;;4.50;99.90;;;;;;5010656;28;20124;-64
2020/12/14 05:11:34;;;;;;;7.85;3.72;;;4.60;99.90;;;;;;4998201;28;20048;-66
2020/12/14 05:14:27;;;;;;;7.75;3.47;;;4.60;99.90;;;;;;5011320;28;20038;-66
2020/12/14 05:17:23;;;;;;;5.93;3.47;;;4.70;99.90;;;;;;5015490;28;20037;-65
2020/12/14 05:20:19;;;;;;;6.10;3.30;;;4.80;99.90;;;;;;5030767;28;20034;-65
2020/12/14 05:23:08;;;;;;;6.75;3.22;;;4.80;99.90;;;;;;5007171;28;20037;-61
2020/12/14 05:26:06;;;;;;;6.93;3.47;;;4.80;99.90;;;;;;5021032;28;20030;-64
2020/12/14 05:28:54;;;;;;;7.68;3.42;;;4.70;99.90;;;;;;5019547;28;20045;-63
2020/12/14 05:31:40;;;;;;;5.70;3.28;;;4.70;99.90;;;;;;5033775;28;20167;-63
2020/12/14 05:34:42;;;;;;;8.27;3.70;;;4.70;99.90;;;;;;5033921;28;20501;-64
2020/12/14 05:37:28;;;;;;;6.22;3.45;;;4.70;99.90;;;;;;5019533;28;20041;-62
2020/12/14 05:40:14;;;;;;;6.63;3.00;;;4.70;99.90;;;;;;5033466;28;20057;-60
2020/12/14 05:43:12;;;;;;;4.38;2.95;;;4.70;99.90;;;;;;5034436;28;20150;-61
2020/12/14 05:46:12;;;;;;;7.72;3.63;;;4.70;99.90;;;;;;5018276;28;20379;-61
2020/12/14 05:49:06;;;;;;;8.75;4.18;;;4.70;99.90;;;;;;5034666;28;20441;-61
2020/12/14 05:52:01;;;;;;;7.13;3.55;;;4.90;99.90;;;;;;5019943;28;20038;-62
2020/12/14 05:54:54;;;;;;;7.38;3.30;;;5.00;99.90;;;;;;5033352;28;20045;-61
2020/12/14 05:57:47;;;;;;;6.32;3.22;;;5.10;99.90;;;;;;5034538;28;20044;-62
2020/12/14 06:00:33;;;;;;;8.05;4.05;;;5.10;99.90;;;;;;5020079;28;20441;-61
2020/12/14 06:03:25;;;;;;;5.63;3.33;;;5.00;99.90;;;;;;5014101;28;20082;-62
2020/12/14 06:06:14;;;;;;;9.00;3.70;;;5.00;99.90;;;;;;5019616;28;20067;-63
2020/12/14 06:09:06;;;;;;;6.43;3.78;;;4.80;99.90;;;;;;5034467;28;20041;-62
2020/12/14 06:11:55;;;;;;;;;;;4.80;99.90;;;;;;5033734;28;20032;-64
2020/12/14 06:14:41;;;;;;;6.95;3.65;;;4.70;99.90;;;;;;5033340;28;20050;-63
2020/12/14 06:17:28;;;;;;;5.55;3.08;;;4.70;99.90;;;;;;5013752;28;20045;-62
2020/12/14 06:20:22;;;;;;;7.70;3.67;;;4.80;99.90;;;;;;5013538;28;20044;-62
2020/12/14 06:23:11;;;;;;;5.78;3.70;;;4.90;99.90;;;;;;5012663;28;20491;-62
2020/12/14 06:26:05;;;;;;;7.28;3.20;;;4.90;99.90;;;;;;4998478;28;20542;-62
2020/12/14 06:28:53;;;;;;;8.57;3.70;;;4.90;99.90;;;;;;5011896;28;20487;-62
2020/12/14 06:31:40;;;;;;;5.75;3.33;;;4.90;99.90;;;;;;5032287;28;20037;-63
2020/12/14 06:34:32;;;;;;;7.78;3.45;;;5.10;99.90;;;;;;5030938;28;20038;-62
2020/12/14 06:37:21;;;;;;;6.03;3.53;;;5.20;99.90;;;;;;5013865;28;20026;-62
2020/12/14 06:40:07;;;;;;;8.35;3.40;;;5.20;99.90;;;;;;5014445;28;20038;-62
2020/12/14 06:42:56;;;;;;;7.10;3.78;;;5.30;99.90;;;;;;4998328;28;20061;-62
2020/12/14 06:45:45;;;;;;;6.38;3.30;;;5.20;99.90;;;;;;5018411;28;20060;-61
2020/12/14 06:48:45;;;;;;;6.82;3.60;;;5.40;99.90;;;;;;5017571;28;20092;-61
2020/12/14 06:51:58;;;;;;;6.50;3.00;;;5.40;99.90;;;;;;5016705;28;20044;-61
2020/12/14 06:54:49;;;;;;;5.25;3.08;;;5.30;99.90;;;;;;5032862;28;20060;-61
2020/12/14 06:57:39;;;;;;;7.23;3.43;;;5.30;99.90;;;;;;5033038;28;20625;-71
2020/12/14 07:00:31;;;;;;;7.78;3.80;;;5.20;99.90;;;;;;5018383;28;20037;-61
2020/12/14 07:03:49;;;;;;;6.25;3.50;;;5.20;99.90;;;;;;5033190;28;20034;-62
2020/12/14 07:06:35;;;;;;;5.88;3.05;;;5.20;99.90;;;;;;5006771;28;20044;-62
2020/12/14 07:09:28;;;;;;;7.53;3.47;;;5.30;99.90;;;;;;5033185;28;20044;-62
2020/12/14 07:12:39;;;;;;;5.10;3.25;;;5.30;99.90;;;;;;5032278;28;20121;-61
2020/12/14 07:15:31;;;;;;;;;;;5.30;99.90;;;;;;5028600;28;20491;-62
2020/12/14 07:18:22;;;;;;;4.63;3.13;;;5.20;99.90;;;;;;5012835;28;20467;-62
2020/12/14 07:21:16;;;;;;;7.28;3.58;;;5.10;99.90;;;;;;4997298;28;20445;-61
2020/12/14 07:24:05;;;;;;;7.55;3.70;;;5.10;99.90;;;;;;4997649;28;20033;-62
2020/12/14 07:26:51;;;;;;;11.07;3.72;;;5.20;99.90;;;;;;4998105;28;20088;-62
2020/12/14 07:29:39;;;;;;;10.15;4.47;;;5.50;99.90;;;;;;4998097;28;20076;-61
2020/12/14 07:32:25;;;;;;;9.80;4.00;;;5.60;99.90;;;;;;4996618;28;20064;-62
2020/12/14 07:35:11;;;;;;;7.22;3.60;;;5.60;99.90;;;;;;5012811;28;20398;-61
2020/12/14 07:37:58;;;;;;;8.35;3.92;;;5.80;99.90;;;;;;5013062;28;20133;-62
2020/12/14 07:40:43;;;;;;;6.35;3.42;;;5.80;99.90;;;;;;5011943;28;20049;-62
2020/12/14 07:43:30;;;;;;;6.40;3.10;;;5.80;99.90;;;;;;5012528;28;20046;-61
2020/12/14 07:46:36;;;;;;;7.25;3.30;;;5.80;99.90;;;;;;5023501;28;20038;-61
2020/12/14 07:49:23;;;;;;;7.20;3.50;;;5.70;99.90;;;;;;5032301;28;20398;-61
2020/12/14 07:52:10;;;;;;;7.93;3.70;;;5.70;99.90;;;;;;5012019;28;20073;-63
2020/12/14 07:55:00;;;;;;;11.57;3.53;;;5.70;99.90;;;;;;5011521;28;20459;-62
2020/12/14 07:57:48;;;;;;;7.88;3.67;;;5.70;99.90;;;;;;5010046;28;20038;-62
2020/12/14 08:00:34;;;;;;;7.07;3.45;;;5.60;99.90;;;;;;4997885;28;20096;-62
2020/12/14 08:03:22;;;;;;;5.63;3.50;;;5.80;99.90;;;;;;5011846;28;20399;-62
2020/12/14 08:06:19;;;;;;;10.93;4.40;;;5.70;99.90;;;;;;5011267;28;20049;-61
2020/12/14 08:09:07;;;;;;;7.43;4.07;;;5.70;99.90;;;;;;4998062;28;20384;-61
2020/12/14 08:11:53;;;;;;;7.47;3.75;;;5.60;99.90;;;;;;4998837;28;20029;-61
2020/12/14 08:14:40;;;;;;;5.72;3.30;;;5.60;99.90;;;;;;4998354;28;20034;-61
2020/12/14 08:17:27;;;;;;;6.38;3.22;;;5.70;99.90;;;;;;5004811;28;20100;-61
2020/12/14 08:20:33;;;;;;;8.00;3.53;;;5.70;99.90;;;;;;4998773;28;20050;-61
2020/12/14 08:23:27;;;;;;;5.50;3.45;;;5.80;99.90;;;;;;5014880;28;20044;-62
2020/12/14 08:26:16;;;;;;;7.65;3.88;;;5.80;99.90;;;;;;5022937;28;20091;-62
2020/12/14 08:29:02;;;;;;;7.65;3.80;;;5.90;99.90;;;;;;5016294;28;20022;-62
2020/12/14 08:31:48;;;;;;;25.10;10.63;;;6.00;99.90;;;;;;5016773;28;20044;-60
2020/12/14 08:34:37;;;;;;;7.95;4.50;;;6.10;99.90;;;;;;5031261;28;20030;-61
2020/12/14 08:37:23;;;;;;;8.40;3.92;;;6.10;99.90;;;;;;5018149;28;20092;-62
2020/12/14 08:40:09;;;;;;;9.20;4.07;;;6.10;99.90;;;;;;5030584;28;20037;-62
2020/12/14 08:43:10;;;;;;;10.43;4.60;;;6.20;99.90;;;;;;5029211;28;20075;-62
2020/12/14 08:46:01;;;;;;;8.40;3.90;;;6.20;99.90;;;;;;5017224;28;20118;-62
2020/12/14 08:48:59;;;;;;;8.52;3.83;;;6.10;99.90;;;;;;5030979;28;20041;-62
2020/12/14 08:51:48;;;;;;;7.95;3.33;;;6.30;99.90;;;;;;5016096;28;20061;-62
2020/12/14 08:54:35;;;;;;;6.90;3.80;;;6.40;99.90;;;;;;5030885;28;20033;-62
2020/12/14 08:57:32;;;;;;;5.95;3.35;;;6.70;99.90;;;;;;5015241;28;20394;-62
2020/12/14 09:00:22;;;;;;;8.20;3.35;;;6.90;99.90;;;;;;5030445;28;20037;-62
2020/12/14 09:03:08;;;;;;;6.63;2.95;;;6.90;99.90;;;;;;5029865;28;20100;-61
2020/12/14 09:05:54;;;;;;;7.93;3.10;;;6.90;99.90;;;;;;5030811;28;20091;-62
2020/12/14 09:08:40;;;;;;;5.10;2.95;;;6.90;99.90;;;;;;5016748;28;20083;-62
2020/12/14 09:11:28;;;;;;;9.52;4.68;;;6.80;99.90;;;;;;5030727;28;20037;-63
2020/12/14 09:14:23;;;;;;;7.00;3.90;;;6.80;99.90;;;;;;5010488;28;20403;-62
2020/12/14 09:17:18;;;;;;;11.32;4.43;;;6.70;99.90;;;;;;5028026;28;20045;-63
2020/12/14 09:20:09;;;;;;;8.05;3.42;;;6.80;99.90;;;;;;5030971;28;20037;-63
2020/12/14 09:22:55;;;;;;;11.02;4.03;;;6.80;99.90;;;;;;5030029;28;20053;-62
2020/12/14 09:25:44;;;;;;;6.50;3.92;;;6.80;99.90;;;;;;5015895;28;20483;-61
2020/12/14 09:28:33;;;;;;;6.00;3.15;;;6.80;99.90;;;;;;5030744;28;20091;-62
2020/12/14 09:31:19;;;;;;;10.02;4.07;;;6.80;99.90;;;;;;5016007;28;20080;-62
2020/12/14 09:34:06;;;;;;;6.07;3.10;;;6.90;99.90;;;;;;5030924;28;20509;-62
2020/12/14 09:36:57;;;;;;;5.32;2.80;;;7.00;99.90;;;;;;5015185;28;20045;-63
2020/12/14 09:39:43;;;;;;;9.02;3.45;;;7.10;99.90;;;;;;5015351;28;20052;-61
2020/12/14 09:42:29;;;;;;;7.97;3.30;;;7.10;99.90;;;;;;5030487;28;20549;-61
2020/12/14 09:45:15;;;;;;;6.45;3.10;;;7.10;99.90;;;;;;5026765;28;20064;-62
2020/12/14 09:48:01;;;;;;;5.88;3.10;;;7.10;99.90;;;;;;4996777;28;20041;-62
2020/12/14 09:50:47;;;;;;;7.07;2.97;;;7.10;99.90;;;;;;5010908;28;20038;-62
2020/12/14 09:53:34;;;;;;;8.15;3.40;;;7.10;99.90;;;;;;5010641;28;20038;-61
2020/12/14 09:56:20;;;;;;;6.60;3.30;;;7.20;99.90;;;;;;5011432;28;20522;-62
2020/12/14 09:59:06;;;;;;;11.90;3.45;;;7.20;99.90;;;;;;5010431;28;20038;-62
2020/12/14 10:01:52;;;;;;;6.20;3.05;;;7.20;99.90;;;;;;5010479;28;20038;-62
2020/12/14 10:04:38;;;;;;;7.75;4.13;;;7.30;99.90;;;;;;5010578;28;20026;-62
2020/12/14 10:07:24;;;;;;;6.80;3.20;;;7.40;99.90;;;;;;5012214;28;20045;-62
2020/12/14 10:10:10;;;;;;;9.30;3.88;;;7.30;99.90;;;;;;4999403;28;20111;-62
2020/12/14 10:13:00;;;;;;;5.90;3.15;;;7.40;99.90;;;;;;5013760;28;20410;-62
2020/12/14 10:15:46;;;;;;;7.88;3.40;;;7.40;99.90;;;;;;4999952;28;20080;-62
2020/12/14 10:18:34;;;;;;;5.78;3.42;;;7.50;99.90;;;;;;5013873;28;20495;-62
2020/12/14 10:21:20;;;;;;;7.53;3.50;;;7.60;99.90;;;;;;4998576;28;20136;-62
2020/12/14 10:24:06;;;;;;;6.38;3.08;;;7.60;99.90;;;;;;5012254;28;20038;-62
2020/12/14 10:26:52;;;;;;;6.35;3.53;;;7.60;99.90;;;;;;4999033;28;20376;-62
2020/12/14 10:29:38;;;;;;;12.57;3.63;;;7.70;99.90;;;;;;5013117;28;20030;-62
2020/12/14 10:32:24;;;;;;;7.93;3.53;;;7.60;99.90;;;;;;5020817;28;20045;-63
2020/12/14 10:35:10;;;;;;;6.68;3.33;;;7.60;99.90;;;;;;5031090;28;20036;-64
2020/12/14 10:37:57;;;;;;;6.53;3.65;;;7.50;99.90;;;;;;5013661;28;20414;-64
2020/12/14 10:40:43;;;;;;;7.93;3.38;;;7.60;99.90;;;;;;4984957;28;20041;-64
2020/12/14 10:43:30;;;;;;;8.60;3.45;;;7.50;99.90;;;;;;4998584;28;20069;-64
2020/12/14 10:46:17;;;;;;;5.50;3.60;;;7.50;99.90;;;;;;5009861;28;20029;-65
2020/12/14 10:49:03;;;;;;;6.78;3.60;;;7.50;99.90;;;;;;5032267;28;20049;-64
2020/12/14 10:51:49;;;;;;;10.40;3.47;;;7.50;99.90;;;;;;5017915;28;20033;-65
2020/12/14 10:54:35;;;;;;;6.47;3.15;;;7.50;99.90;;;;;;5032465;28;20146;-64
2020/12/14 10:57:21;;;;;;;8.38;3.08;;;7.50;99.90;;;;;;5032013;28;20034;-67
2020/12/14 11:00:09;;;;;;;5.97;3.58;;;7.70;99.90;;;;;;5019309;28;20033;-66
2020/12/14 11:02:58;;;;;;;7.82;3.78;;;8.30;99.90;;;;;;5032329;28;20461;-60
2020/12/14 11:05:44;;;;;;;6.55;3.30;;;8.50;99.90;;;;;;5032918;28;20400;-65
2020/12/14 11:08:30;;;;;;;7.43;4.13;;;8.30;99.90;;;;;;5018165;28;20412;-64
2020/12/14 11:11:16;;;;;;;9.00;3.42;;;8.60;99.90;;;;;;5032158;28;20041;-64
2020/12/14 11:14:03;;;;;;;6.70;3.22;;;8.70;99.90;;;;;;5032406;28;20038;-64
2020/12/14 11:16:49;;;;;;;7.65;3.63;;;8.80;99.90;;;;;;5033205;28;20100;-66
2020/12/14 11:19:35;;;;;;;7.28;3.85;;;8.90;99.90;;;;;;5012669;28;20048;-65
2020/12/14 11:22:21;;;;;;;6.13;3.00;;;9.00;99.90;;;;;;5011828;28;20050;-64
2020/12/14 11:25:10;;;;;;;6.85;3.50;;;8.70;99.90;;;;;;5011838;28;20034;-64
2020/12/14 11:27:56;;;;;;;5.43;2.95;;;8.60;99.90;;;;;;4998592;28;20117;-66
2020/12/14 11:30:42;;;;;;;6.93;3.03;;;8.40;99.90;;;;;;5013634;28;20120;-67
2020/12/14 11:33:28;;;;;;;5.95;3.25;;;8.50;99.90;;;;;;5013241;28;20474;-62
2020/12/14 11:36:14;;;;;;;6.07;3.13;;;8.60;99.90;;;;;;5011500;28;20030;-65
2020/12/14 11:39:01;;;;;;;4.97;2.80;;;8.20;99.90;;;;;;4998261;28;20038;-65
2020/12/14 11:41:48;;;;;;;6.25;2.80;;;8.50;99.90;;;;;;4997022;28;20046;-70
2020/12/14 11:44:34;;;;;;;7.70;3.35;;;8.70;99.90;;;;;;4998895;28;20038;-63
2020/12/14 11:47:20;;;;;;;5.75;2.97;;;8.80;99.90;;;;;;5012451;28;20030;-63
2020/12/14 11:50:07;;;;;;;6.60;3.20;;;8.80;99.90;;;;;;5011816;28;20037;-63
2020/12/14 11:52:53;;;;;;;6.25;2.75;;;8.90;99.90;;;;;;5010857;28;20494;-63
2020/12/14 11:55:39;;;;;;;9.27;2.95;;;8.80;99.90;;;;;;5011498;28;20238;-63
2020/12/14 11:58:25;;;;;;;5.95;3.25;;;8.80;99.90;;;;;;5011869;28;20394;-64
2020/12/14 12:01:11;;;;;;;6.43;2.97;;;8.70;99.90;;;;;;5011241;28;20037;-64
2020/12/14 12:03:57;;;;;;;4.93;2.92;;;8.60;99.90;;;;;;5012411;28;20037;-64
2020/12/14 12:06:43;;;;;;;6.72;3.53;;;8.60;99.90;;;;;;5012339;28;20088;-64
2020/12/14 12:09:29;;;;;;;4.47;2.22;;;8.70;99.90;;;;;;5012252;28;20030;-64
2020/12/14 12:12:15;;;;;;;6.85;3.20;;;8.50;99.90;;;;;;5012178;28;20041;-64
2020/12/14 12:15:02;;;;;;;8.00;3.15;;;8.60;99.90;;;;;;5010786;28;20445;-63
2020/12/14 12:17:48;;;;;;;9.70;3.50;;;8.70;99.90;;;;;;5031985;28;20060;-63
2020/12/14 12:20:34;;;;;;;5.25;2.70;;;8.90;99.90;;;;;;5031325;28;20559;-63
2020/12/14 12:23:20;;;;;;;7.25;3.10;;;9.00;99.90;;;;;;5031368;28;20079;-63
2020/12/14 12:26:06;;;;;;;6.40;3.42;;;9.20;99.90;;;;;;5031544;28;20090;-63
2020/12/14 12:28:52;;;;;;;11.00;3.90;;;9.50;99.90;;;;;;5032773;28;20113;-63
2020/12/14 12:31:38;;;;;;;7.72;3.72;;;9.30;99.90;;;;;;5031192;28;20034;-63
2020/12/14 12:34:25;;;;;;;6.30;3.00;;;9.20;99.90;;;;;;5016078;28;20037;-63
2020/12/14 12:37:12;;;;;;;7.57;3.50;;;9.10;99.90;;;;;;5017660;28;20038;-63
2020/12/14 12:40:00;;;;;;;6.85;3.58;;;9.10;99.90;;;;;;5011176;28;20159;-63
2020/12/14 12:42:46;;;;;;;8.05;4.05;;;9.10;99.90;;;;;;5010528;28;20081;-63
2020/12/14 12:45:32;;;;;;;13.18;3.92;;;9.20;99.90;;;;;;5015724;28;20466;-63
2020/12/14 12:48:18;;;;;;;7.90;3.40;;;9.10;99.90;;;;;;5029271;28;20573;-63
2020/12/14 12:51:07;;;;;;;7.88;3.72;;;8.80;99.90;;;;;;5029413;28;20453;-63
2020/12/14 12:53:53;;;;;;;6.22;3.63;;;8.90;99.90;;;;;;5030708;28;20069;-63
2020/12/14 12:56:39;;;;;;;7.45;3.80;;;9.20;99.90;;;;;;5030040;28;20038;-63
2020/12/14 12:59:25;;;;;;;12.73;3.97;;;9.30;99.90;;;;;;5031148;28;20088;-63
2020/12/14 13:02:12;;;;;;;10.38;5.13;;;9.80;99.90;;;;;;5030404;28;20128;-63
2020/12/14 13:04:59;;;;;;;5.55;3.10;;;9.80;99.90;;;;;;5030125;28;20482;-63
2020/12/14 13:07:45;;;;;;;5.40;3.25;;;9.70;99.90;;;;;;5030885;28;20599;-64
2020/12/14 13:10:31;;;;;;;5.82;3.40;;;9.80;99.90;;;;;;5030215;28;20422;-63
2020/12/14 13:13:17;;;;;;;7.63;4.22;;;9.90;99.90;;;;;;5014861;28;20045;-63
2020/12/14 13:16:03;;;;;;;6.57;3.53;;;9.80;99.90;;;;;;5031144;28;20510;-64
2020/12/14 13:18:49;;;;;;;9.70;3.50;;;9.80;99.90;;;;;;5030171;28;20046;-64
2020/12/14 13:21:36;;;;;;;7.80;4.25;;;9.80;99.90;;;;;;5030640;28;20038;-63
2020/12/14 13:24:22;;;;;;;6.13;3.40;;;9.90;99.90;;;;;;5030875;28;20052;-63
2020/12/14 13:27:08;;;;;;;6.70;3.60;;;9.50;99.90;;;;;;5029284;28;20490;-63
2020/12/14 13:29:54;;;;;;;6.25;3.78;;;9.70;99.90;;;;;;5015248;28;20434;-63
2020/12/14 13:32:40;;;;;;;6.50;3.00;;;9.60;99.90;;;;;;5030943;28;20037;-63
2020/12/14 13:35:26;;;;;;;5.60;3.42;;;9.80;99.90;;;;;;5030117;28;20029;-63
2020/12/14 13:38:12;;;;;;;5.65;3.40;;;9.70;99.90;;;;;;5015017;28;20486;-63
2020/12/14 13:40:58;;;;;;;5.55;3.05;;;9.70;99.90;;;;;;5030266;28;20026;-63
2020/12/14 13:43:46;;;;;;;8.27;3.67;;;9.50;99.90;;;;;;5018054;28;20418;-63
2020/12/14 13:46:32;;;;;;;8.38;3.95;;;9.40;99.90;;;;;;5032453;28;20052;-63
2020/12/14 13:49:18;;;;;;;7.88;3.55;;;9.10;99.90;;;;;;5018889;28;20112;-63
2020/12/14 13:52:04;;;;;;;7.80;3.40;;;9.30;99.90;;;;;;5034337;28;20041;-63
2020/12/14 13:54:51;;;;;;;6.88;3.53;;;9.30;99.90;;;;;;5034344;28;20041;-63
2020/12/14 13:57:37;;;;;;;6.85;3.88;;;9.20;99.90;;;;;;5033642;28;20045;-63
2020/12/14 14:00:24;;;;;;;5.60;3.30;;;9.20;99.90;;;;;;5033212;28;20033;-63
2020/12/14 14:03:10;;;;;;;5.72;2.85;;;9.10;99.90;;;;;;5033688;28;20047;-62
2020/12/14 14:05:56;;;;;;;6.57;3.65;;;9.10;99.90;;;;;;5034631;28;20120;-63
2020/12/14 14:08:45;;;;;;;6.57;3.28;;;9.00;99.90;;;;;;5019097;28;20141;-63
2020/12/14 14:11:31;;;;;;;5.18;2.90;;;9.00;99.90;;;;;;5032978;28;20120;-63
2020/12/14 14:14:18;;;;;;;7.90;4.07;;;8.90;99.90;;;;;;5034035;28;20025;-63
2020/12/14 14:17:04;;;;;;;7.55;3.45;;;8.80;99.90;;;;;;5019300;28;20503;-63
2020/12/14 14:19:51;;;;;;;8.57;3.60;;;8.90;99.90;;;;;;5033001;28;20498;-66
2020/12/14 14:22:37;;;;;;;6.35;3.70;;;8.70;99.90;;;;;;5033017;28;20045;-63
2020/12/14 14:25:24;;;;;;;9.93;3.65;;;8.80;99.90;;;;;;5032957;28;20037;-63
2020/12/14 14:28:10;;;;;;;9.85;3.92;;;8.80;99.90;;;;;;5032329;28;20095;-63
2020/12/14 14:30:56;;;;;;;9.35;4.15;;;8.70;99.90;;;;;;5033104;28;20038;-63
2020/12/14 14:33:42;;;;;;;7.75;4.38;;;8.70;99.90;;;;;;5033425;28;20052;-63
2020/12/14 14:36:29;;;;;;;6.03;3.60;;;8.60;99.90;;;;;;5032805;28;20120;-63
2020/12/14 14:39:15;;;;;;;9.00;4.28;;;8.60;99.90;;;;;;5017806;28;20080;-63
2020/12/14 14:42:02;;;;;;;6.53;4.10;;;8.60;99.90;;;;;;5034201;28;20119;-63